GCRR/ACE METAR and TAF weather

Enter ICAO airport designator
Station Type Date Time Source
GCRR METAR 2022/01/19 20:30 UTC NOAA

GCRR 192030Z 08010KT CAVOK 19/13 Q1022


Station Type Date Time Source
GCRR Decoded METAR 2022/01/19 20:30 UTC NOAA

Lanzarote / Aeropuerto, Spain (GCRR) 28-57N 013-36W 21M
Jan 19, 2022 - 03:30 PM EST / 2022.01.19 2030 UTC
Wind: from the E (080 degrees) at 12 MPH (10 KT):0
Visibility: greater than 7 mile(s):0
Temperature: 66 F (19 C)
Dew Point: 55 F (13 C)
Relative Humidity: 68%
Pressure (altimeter): 30.18 in. Hg (1022 hPa)
ob: GCRR 192030Z 08010KT CAVOK 19/13 Q1022
cycle: 20

Station Type Date Time Source
GCRR TAF 2022/01/19 21:29 UTC NOAA

TAF GCRR 192000Z 1921/2021 09015KT 9000 NSC TX19/2014Z TN15/2007Z PROB40
TEMPO 1921/2015 4900 HZ

Example: see airport list